Time;durP1;ratioP1;P1;durP2;ratioP2;P2;SDS_P1;SDS_P2;PMS_P1;PMS_P2;Temp;Humidity;BMP_temperature;BMP_pressure;BME280_temperature;BME280_humidity;BME280_pressure;Samples;Min_cycle;Max_cycle;Signal;HPM_P1;HPM_P2
2022/10/16 00:00:03;;;;;;;7.13;4.43;;;;;;;;;;5156083;27;20204;-77
2022/10/16 00:02:31;;;;;;;6.23;4.47;;;;;;;;;;5156968;27;20291;-77
2022/10/16 00:04:58;;;;;;;8.67;5.07;;;;;;;;;;5155639;27;20244;-77
2022/10/16 00:07:25;;;;;;;9.80;4.80;;;;;;;;;;5156675;27;20272;-77
2022/10/16 00:09:53;;;;;;;8.63;5.43;;;;;;;;;;5156766;27;20236;-76
2022/10/16 00:12:20;;;;;;;7.17;5.17;;;;;;;;;;5157166;27;20283;-77
2022/10/16 00:14:47;;;;;;;12.37;5.50;;;;;;;;;;5156549;27;20275;-77
2022/10/16 00:17:14;;;;;;;9.33;5.70;;;;;;;;;;5156604;27;20228;-77
2022/10/16 00:19:43;;;;;;;10.17;5.73;;;;;;;;;;5156538;27;20279;-77
2022/10/16 00:22:10;;;;;;;10.53;5.83;;;;;;;;;;5158253;27;20236;-77
2022/10/16 00:24:38;;;;;;;10.53;6.03;;;;;;;;;;5158176;27;20238;-77
2022/10/16 00:27:05;;;;;;;14.27;6.27;;;;;;;;;;5156618;27;20284;-77
2022/10/16 00:29:32;;;;;;;8.63;5.90;;;;;;;;;;5155787;27;20304;-77
2022/10/16 00:31:59;;;;;;;11.40;5.43;;;;;;;;;;5156509;27;20218;-77
2022/10/16 00:34:26;;;;;;;12.60;6.50;;;;;;;;;;5156251;27;20745;-78
2022/10/16 00:36:55;;;;;;;11.13;6.37;;;;;;;;;;5171624;27;20318;-77
2022/10/16 00:39:23;;;;;;;13.13;6.37;;;;;;;;;;5156131;27;20655;-77
2022/10/16 00:41:50;;;;;;;9.67;6.83;;;;;;;;;;5175459;27;20203;-77
2022/10/16 00:44:36;;;;;;;11.93;6.40;;;;;;;;;;5173680;27;20295;-77
2022/10/16 00:47:03;;;;;;;12.30;6.30;;;;;;;;;;5156342;27;20280;-77
2022/10/16 00:49:30;;;;;;;12.40;6.97;;;;;;;;;;5159384;27;20231;-77
2022/10/16 00:51:59;;;;;;;9.03;6.53;;;;;;;;;;5168992;27;20284;-77
2022/10/16 00:54:28;;;;;;;9.00;6.07;;;;;;;;;;5155806;27;20315;-78
2022/10/16 00:56:55;;;;;;;12.60;6.57;;;;;;;;;;5155308;27;20303;-77
2022/10/16 00:59:24;;;;;;;12.07;6.93;;;;;;;;;;5159575;27;20227;-77
2022/10/16 01:01:51;;;;;;;12.50;6.87;;;;;;;;;;5154954;27;20283;-77
2022/10/16 01:04:19;;;;;;;10.93;6.73;;;;;;;;;;5155260;27;20291;-77
2022/10/16 01:06:49;;;;;;;12.30;6.90;;;;;;;;;;5153374;27;20220;-77
2022/10/16 01:09:22;;;;;;;16.40;6.73;;;;;;;;;;5147000;27;20335;-77
2022/10/16 01:11:55;;;;;;;14.03;6.63;;;;;;;;;;5156674;27;20228;-77
2022/10/16 01:14:26;;;;;;;11.67;6.00;;;;;;;;;;5155883;27;20199;-77
2022/10/16 01:16:57;;;;;;;13.30;6.27;;;;;;;;;;5154764;27;20303;-78
2022/10/16 01:19:28;;;;;;;13.07;5.73;;;;;;;;;;5159473;27;20599;-77
2022/10/16 01:21:56;;;;;;;17.93;5.83;;;;;;;;;;5154930;27;20246;-77
2022/10/16 01:24:30;;;;;;;12.60;5.67;;;;;;;;;;5154227;27;20204;-77
2022/10/16 01:27:05;;;;;;;10.63;5.67;;;;;;;;;;5155172;27;20272;-77
2022/10/16 01:29:36;;;;;;;13.87;6.00;;;;;;;;;;5155358;27;20254;-77
2022/10/16 01:32:06;;;;;;;13.10;5.93;;;;;;;;;;5155732;27;20227;-77
2022/10/16 01:34:35;;;;;;;11.10;6.03;;;;;;;;;;5154745;27;20224;-77
2022/10/16 01:37:05;;;;;;;13.30;6.10;;;;;;;;;;5155461;27;20303;-77
2022/10/16 01:39:34;;;;;;;12.10;6.00;;;;;;;;;;5165776;27;20690;-77
2022/10/16 01:42:03;;;;;;;11.77;6.20;;;;;;;;;;5159913;27;20683;-77
2022/10/16 01:44:33;;;;;;;10.97;5.83;;;;;;;;;;5154765;27;20279;-77
2022/10/16 01:47:01;;;;;;;13.10;5.63;;;;;;;;;;5155299;27;20283;-77
2022/10/16 01:49:31;;;;;;;11.10;6.07;;;;;;;;;;5154672;27;20283;-77
2022/10/16 01:52:00;;;;;;;15.13;6.03;;;;;;;;;;5153863;27;20227;-77
2022/10/16 01:54:29;;;;;;;9.13;5.20;;;;;;;;;;5161922;27;20284;-77
2022/10/16 01:56:56;;;;;;;10.20;5.60;;;;;;;;;;5154788;27;20303;-77
2022/10/16 01:59:25;;;;;;;8.43;5.47;;;;;;;;;;5154764;27;20598;-77
2022/10/16 02:01:57;;;;;;;11.10;5.60;;;;;;;;;;5154362;27;20353;-77
2022/10/16 02:04:26;;;;;;;10.73;5.67;;;;;;;;;;5136139;27;20201;-77
2022/10/16 02:06:54;;;;;;;8.63;5.03;;;;;;;;;;5154802;27;20223;-77
2022/10/16 02:09:21;;;;;;;16.23;5.30;;;;;;;;;;5154136;27;20306;-77
2022/10/16 02:11:49;;;;;;;7.97;5.30;;;;;;;;;;5154696;27;20199;-77
2022/10/16 02:14:16;;;;;;;10.97;5.47;;;;;;;;;;5154354;27;20196;-77
2022/10/16 02:16:44;;;;;;;11.63;5.90;;;;;;;;;;5154166;27;20295;-77
2022/10/16 02:19:14;;;;;;;8.70;5.23;;;;;;;;;;5153996;27;20234;-77
2022/10/16 02:21:45;;;;;;;8.67;5.17;;;;;;;;;;5154595;27;20635;-77
2022/10/16 02:24:17;;;;;;;13.23;6.00;;;;;;;;;;5157225;27;20209;-77
2022/10/16 02:26:47;;;;;;;9.93;5.60;;;;;;;;;;5154619;27;20701;-78
2022/10/16 02:29:17;;;;;;;12.20;5.70;;;;;;;;;;5147311;27;20299;-77
2022/10/16 02:31:47;;;;;;;11.57;5.73;;;;;;;;;;5153631;27;20198;-77
2022/10/16 02:34:16;;;;;;;8.33;5.60;;;;;;;;;;5154091;27;20288;-77
2022/10/16 02:36:44;;;;;;;12.33;6.23;;;;;;;;;;5154833;27;20295;-77
2022/10/16 02:39:11;;;;;;;9.77;6.07;;;;;;;;;;5156526;27;20319;-76
2022/10/16 02:41:39;;;;;;;11.63;6.27;;;;;;;;;;5175197;27;20203;-77
2022/10/16 02:44:06;;;;;;;12.03;6.10;;;;;;;;;;5163699;27;20279;-77
2022/10/16 02:46:33;;;;;;;9.93;6.00;;;;;;;;;;5153570;27;20228;-77
2022/10/16 02:49:00;;;;;;;10.47;5.53;;;;;;;;;;5152953;27;20271;-77
2022/10/16 02:51:29;;;;;;;10.03;5.50;;;;;;;;;;5154242;27;20223;-77
2022/10/16 02:53:56;;;;;;;11.40;6.07;;;;;;;;;;5153288;27;20283;-77
2022/10/16 02:56:23;;;;;;;9.47;5.40;;;;;;;;;;5170690;27;20287;-77
2022/10/16 02:58:51;;;;;;;10.63;5.20;;;;;;;;;;5162650;27;20416;-77
2022/10/16 03:01:18;;;;;;;10.77;5.27;;;;;;;;;;5157735;27;20638;-77
2022/10/16 03:03:45;;;;;;;8.40;5.07;;;;;;;;;;5154116;27;20663;-78
2022/10/16 03:06:12;;;;;;;7.70;4.80;;;;;;;;;;5157011;27;20196;-76
2022/10/16 03:08:41;;;;;;;11.90;5.50;;;;;;;;;;5160794;27;20676;-78
2022/10/16 03:11:08;;;;;;;9.97;5.43;;;;;;;;;;5153722;27;20287;-77
2022/10/16 03:13:35;;;;;;;9.10;5.23;;;;;;;;;;5152925;27;20690;-77
2022/10/16 03:16:02;;;;;;;8.63;5.40;;;;;;;;;;5163048;27;20232;-78
2022/10/16 03:18:30;;;;;;;8.10;5.40;;;;;;;;;;5170089;27;20288;-78
2022/10/16 03:20:57;;;;;;;7.73;5.33;;;;;;;;;;5174695;27;20286;-77
2022/10/16 03:23:24;;;;;;;13.10;5.97;;;;;;;;;;5174573;27;20230;-77
2022/10/16 03:25:53;;;;;;;9.87;5.30;;;;;;;;;;5159199;27;20291;-77
2022/10/16 03:28:20;;;;;;;8.70;5.23;;;;;;;;;;5157295;27;20196;-76
2022/10/16 03:30:48;;;;;;;10.43;5.60;;;;;;;;;;5157311;27;20234;-77
2022/10/16 03:33:15;;;;;;;10.33;5.67;;;;;;;;;;5160508;27;20262;-77
2022/10/16 03:35:42;;;;;;;9.43;5.13;;;;;;;;;;5171670;27;20288;-77
2022/10/16 03:38:09;;;;;;;10.90;5.57;;;;;;;;;;5157624;27;20614;-77
2022/10/16 03:40:36;;;;;;;8.90;5.30;;;;;;;;;;5161396;27;20232;-77
2022/10/16 03:43:05;;;;;;;10.87;5.33;;;;;;;;;;5157586;27;20192;-77
2022/10/16 03:45:32;;;;;;;10.80;5.20;;;;;;;;;;5163345;27;20658;-77
2022/10/16 03:47:59;;;;;;;8.93;5.63;;;;;;;;;;5169528;27;20262;-77
2022/10/16 03:50:26;;;;;;;9.00;5.03;;;;;;;;;;5157276;27;20272;-77
2022/10/16 03:52:54;;;;;;;8.93;5.10;;;;;;;;;;5147761;27;20329;-77
2022/10/16 03:55:21;;;;;;;10.50;5.20;;;;;;;;;;5157392;27;20279;-77
2022/10/16 03:57:48;;;;;;;10.30;5.20;;;;;;;;;;5157345;27;20314;-77
2022/10/16 04:00:17;;;;;;;13.97;5.40;;;;;;;;;;5165002;27;20230;-76
2022/10/16 04:02:44;;;;;;;13.63;5.73;;;;;;;;;;5162527;27;20275;-77
2022/10/16 04:05:11;;;;;;;15.57;6.10;;;;;;;;;;5156402;27;20291;-77
2022/10/16 04:07:38;;;;;;;9.33;6.13;;;;;;;;;;5155707;27;20225;-77
2022/10/16 04:10:06;;;;;;;10.03;5.67;;;;;;;;;;5156037;27;20263;-77
2022/10/16 04:12:33;;;;;;;11.90;5.27;;;;;;;;;;5156405;27;20216;-77
2022/10/16 04:15:00;;;;;;;9.20;5.40;;;;;;;;;;5155778;27;20228;-77
2022/10/16 04:17:29;;;;;;;10.33;5.40;;;;;;;;;;5156195;27;20279;-77
2022/10/16 04:19:56;;;;;;;14.27;5.73;;;;;;;;;;5156983;27;20224;-77
2022/10/16 04:22:23;;;;;;;13.87;6.00;;;;;;;;;;5156981;27;20279;-77
2022/10/16 04:24:50;;;;;;;8.60;5.37;;;;;;;;;;5156956;27;20258;-77
2022/10/16 04:27:18;;;;;;;13.10;5.80;;;;;;;;;;5169267;27;20278;-77
2022/10/16 04:29:45;;;;;;;13.93;5.57;;;;;;;;;;5177134;27;20298;-77
2022/10/16 04:32:12;;;;;;;14.10;5.40;;;;;;;;;;5155797;27;20603;-77
2022/10/16 04:34:42;;;;;;;10.37;5.47;;;;;;;;;;5156617;27;20228;-77
2022/10/16 04:37:09;;;;;;;11.87;5.73;;;;;;;;;;5173531;27;20295;-77
2022/10/16 04:39:36;;;;;;;12.37;6.00;;;;;;;;;;5157137;27;20303;-77
2022/10/16 04:42:04;;;;;;;12.60;6.07;;;;;;;;;;5155870;27;20284;-76
2022/10/16 04:44:31;;;;;;;14.03;6.13;;;;;;;;;;5155582;27;20204;-77
2022/10/16 04:46:58;;;;;;;12.83;6.67;;;;;;;;;;5156074;27;20633;-76
2022/10/16 04:49:25;;;;;;;12.37;5.90;;;;;;;;;;5155983;27;20267;-77
2022/10/16 04:51:54;;;;;;;11.67;6.50;;;;;;;;;;5155797;27;20287;-77
2022/10/16 04:54:21;;;;;;;12.57;6.03;;;;;;;;;;5155553;27;20683;-77
2022/10/16 04:56:50;;;;;;;13.40;6.90;;;;;;;;;;5156654;27;20189;-77
2022/10/16 04:59:17;;;;;;;14.87;7.53;;;;;;;;;;5167628;27;20212;-77
2022/10/16 05:01:45;;;;;;;14.27;7.27;;;;;;;;;;5156050;27;20578;-77
2022/10/16 05:04:12;;;;;;;13.23;7.10;;;;;;;;;;5156130;27;20228;-77
2022/10/16 05:06:40;;;;;;;11.77;7.07;;;;;;;;;;5155193;27;20622;-76
2022/10/16 05:09:08;;;;;;;13.13;7.63;;;;;;;;;;5154618;27;20668;-77
2022/10/16 05:11:36;;;;;;;12.47;7.17;;;;;;;;;;5157186;27;20703;-77
2022/10/16 05:14:03;;;;;;;14.20;7.33;;;;;;;;;;5160866;27;20283;-77
2022/10/16 05:16:31;;;;;;;14.10;7.30;;;;;;;;;;5155997;27;20228;-77
2022/10/16 05:18:58;;;;;;;16.70;8.17;;;;;;;;;;5160438;27;20220;-77
2022/10/16 05:21:25;;;;;;;13.10;7.67;;;;;;;;;;5162012;27;20283;-76
2022/10/16 05:23:55;;;;;;;16.13;9.03;;;;;;;;;;5154691;27;20291;-77
2022/10/16 05:26:23;;;;;;;17.97;8.93;;;;;;;;;;5134827;27;21022;-76
2022/10/16 05:28:51;;;;;;;16.37;9.57;;;;;;;;;;5135625;27;20623;-77
2022/10/16 05:31:18;;;;;;;17.43;8.97;;;;;;;;;;5141239;27;20220;-77
2022/10/16 05:33:45;;;;;;;19.33;9.40;;;;;;;;;;5155183;27;20235;-77
2022/10/16 05:36:13;;;;;;;18.50;9.43;;;;;;;;;;5155311;27;20239;-77
2022/10/16 05:38:40;;;;;;;22.30;9.90;;;;;;;;;;5154281;27;20248;-77
2022/10/16 05:41:07;;;;;;;20.87;9.50;;;;;;;;;;5154995;27;20288;-77
2022/10/16 05:43:36;;;;;;;20.63;10.00;;;;;;;;;;5162725;27;20710;-77
2022/10/16 05:46:04;;;;;;;22.17;9.87;;;;;;;;;;5176186;27;20231;-77
2022/10/16 05:48:31;;;;;;;21.40;9.50;;;;;;;;;;5154101;27;20224;-77
2022/10/16 05:50:59;;;;;;;19.47;10.13;;;;;;;;;;5154580;27;20196;-77
2022/10/16 05:53:26;;;;;;;20.23;10.43;;;;;;;;;;5154789;27;20228;-76
2022/10/16 05:55:54;;;;;;;21.43;10.27;;;;;;;;;;5154786;27;20275;-76
2022/10/16 05:58:21;;;;;;;19.30;9.80;;;;;;;;;;5157396;27;20298;-77
2022/10/16 06:01:01;;;;;;;22.43;10.63;;;;;;;;;;5155670;27;20283;-76
2022/10/16 06:03:29;;;;;;;19.90;9.20;;;;;;;;;;5161162;27;20615;-76
2022/10/16 06:05:56;;;;;;;19.67;10.20;;;;;;;;;;5154066;27;20657;-77
2022/10/16 06:08:23;;;;;;;24.73;10.00;;;;;;;;;;5154211;27;20306;-76
2022/10/16 06:10:51;;;;;;;22.00;10.37;;;;;;;;;;5157255;27;20220;-77
2022/10/16 06:13:18;;;;;;;20.57;10.13;;;;;;;;;;5156234;27;20220;-76
2022/10/16 06:15:46;;;;;;;19.17;9.83;;;;;;;;;;5153323;27;20232;-76
2022/10/16 06:18:14;;;;;;;19.17;10.50;;;;;;;;;;5154117;27;20677;-77
2022/10/16 06:20:41;;;;;;;24.83;10.57;;;;;;;;;;5154337;27;20286;-75
2022/10/16 06:23:09;;;;;;;20.63;10.20;;;;;;;;;;5154403;27;20224;-76
2022/10/16 06:25:36;;;;;;;22.53;10.13;;;;;;;;;;5154451;27;20287;-76
2022/10/16 06:28:03;;;;;;;22.07;10.20;;;;;;;;;;5153935;27;20219;-76
2022/10/16 06:30:30;;;;;;;18.87;9.47;;;;;;;;;;5154395;27;20638;-76
2022/10/16 06:32:57;;;;;;;17.87;9.70;;;;;;;;;;5154291;27;20609;-76
2022/10/16 06:35:26;;;;;;;18.37;9.40;;;;;;;;;;5154083;27;20257;-77
2022/10/16 06:37:54;;;;;;;17.77;8.73;;;;;;;;;;5161909;27;20317;-76
2022/10/16 06:40:21;;;;;;;16.77;8.93;;;;;;;;;;5168199;27;20261;-76
2022/10/16 06:42:48;;;;;;;15.60;8.13;;;;;;;;;;5154303;27;20275;-77
2022/10/16 06:45:16;;;;;;;12.37;7.40;;;;;;;;;;5153759;27;20227;-76
2022/10/16 06:47:43;;;;;;;12.93;6.73;;;;;;;;;;5153744;27;20271;-76
2022/10/16 06:50:10;;;;;;;14.47;7.07;;;;;;;;;;5154184;27;20261;-76
2022/10/16 06:52:39;;;;;;;14.30;7.50;;;;;;;;;;5153707;27;20196;-76
2022/10/16 06:55:06;;;;;;;13.13;7.27;;;;;;;;;;5152997;27;20206;-76
2022/10/16 06:57:33;;;;;;;15.60;7.10;;;;;;;;;;5155196;27;20231;-76
2022/10/16 07:00:01;;;;;;;13.27;7.17;;;;;;;;;;5153453;27;20252;-76
2022/10/16 07:02:28;;;;;;;14.37;7.60;;;;;;;;;;5153842;27;20283;-77
2022/10/16 07:04:56;;;;;;;13.87;7.30;;;;;;;;;;5153280;27;20283;-77
2022/10/16 07:07:26;;;;;;;14.47;7.87;;;;;;;;;;5152609;27;20235;-76
2022/10/16 07:09:54;;;;;;;12.93;7.33;;;;;;;;;;5152824;27;20311;-76
2022/10/16 07:12:22;;;;;;;15.10;7.73;;;;;;;;;;5153942;27;20600;-76
2022/10/16 07:14:50;;;;;;;12.77;7.90;;;;;;;;;;5154012;27;20275;-77
2022/10/16 07:17:17;;;;;;;12.20;7.20;;;;;;;;;;5153808;27;20620;-78
2022/10/16 07:19:45;;;;;;;12.10;7.37;;;;;;;;;;5153258;27;20668;-77
2022/10/16 07:22:12;;;;;;;13.00;7.57;;;;;;;;;;5156366;27;20663;-77
2022/10/16 07:24:39;;;;;;;12.83;7.00;;;;;;;;;;5159010;27;20279;-77
2022/10/16 07:27:07;;;;;;;9.87;6.63;;;;;;;;;;5153648;27;20275;-76
2022/10/16 07:29:35;;;;;;;11.07;6.77;;;;;;;;;;5153479;27;20265;-76
2022/10/16 07:32:03;;;;;;;9.70;6.50;;;;;;;;;;5153729;27;20287;-76
2022/10/16 07:34:30;;;;;;;10.83;6.27;;;;;;;;;;5152878;27;20196;-76
2022/10/16 07:36:57;;;;;;;10.40;6.53;;;;;;;;;;5153686;27;20224;-77
2022/10/16 07:39:25;;;;;;;11.00;6.63;;;;;;;;;;5151919;27;20299;-77
2022/10/16 07:41:52;;;;;;;10.07;6.60;;;;;;;;;;5154923;27;20287;-76
2022/10/16 07:44:20;;;;;;;13.00;6.30;;;;;;;;;;5151852;27;20239;-76
2022/10/16 07:46:48;;;;;;;10.30;5.80;;;;;;;;;;5152274;27;20287;-76
2022/10/16 07:49:15;;;;;;;11.90;6.50;;;;;;;;;;5152519;27;20307;-76
2022/10/16 07:51:42;;;;;;;11.77;6.20;;;;;;;;;;5143978;27;20736;-76
2022/10/16 07:54:09;;;;;;;7.87;5.70;;;;;;;;;;5152883;27;20333;-77
2022/10/16 07:56:37;;;;;;;7.13;5.13;;;;;;;;;;5152273;27;20284;-76
2022/10/16 07:59:04;;;;;;;8.77;4.87;;;;;;;;;;5152042;27;20252;-76
2022/10/16 08:01:32;;;;;;;7.80;5.23;;;;;;;;;;5152307;27;20607;-76
2022/10/16 08:03:59;;;;;;;6.93;4.60;;;;;;;;;;5157993;27;20231;-76
2022/10/16 08:06:27;;;;;;;7.53;5.13;;;;;;;;;;5152857;27;20236;-76
2022/10/16 08:08:54;;;;;;;8.43;4.90;;;;;;;;;;5152202;27;20308;-76
2022/10/16 08:11:22;;;;;;;5.50;4.05;;;;;;;;;;5141844;27;20196;-76
2022/10/16 08:13:49;;;;;;;6.05;4.28;;;;;;;;;;5156391;27;20200;-76
2022/10/16 08:16:17;;;;;;;4.80;3.67;;;;;;;;;;5157609;27;20220;-77
2022/10/16 08:18:46;;;;;;;4.65;3.63;;;;;;;;;;5150868;27;20200;-76
2022/10/16 08:21:14;;;;;;;4.53;3.10;;;;;;;;;;5156104;27;20703;-76
2022/10/16 08:23:41;;;;;;;3.83;2.75;;;;;;;;;;5156368;27;20192;-77
2022/10/16 08:26:09;;;;;;;3.55;2.33;;;;;;;;;;5156322;27;20558;-77
2022/10/16 08:28:36;;;;;;;2.67;2.40;;;;;;;;;;5156506;27;20241;-77
2022/10/16 08:31:07;;;;;;;3.05;2.20;;;;;;;;;;5154509;27;20208;-77
2022/10/16 08:33:35;;;;;;;5.07;2.35;;;;;;;;;;5155555;27;20224;-77
2022/10/16 08:36:04;;;;;;;7.32;4.47;;;;;;;;;;5154755;27;20192;-77
2022/10/16 08:38:31;;;;;;;5.65;2.63;;;;;;;;;;5156225;27;20625;-77
2022/10/16 08:41:12;;;;;;;3.95;2.38;;;;;;;;;;5155529;27;20231;-78
2022/10/16 08:43:45;;;;;;;3.90;1.83;;;;;;;;;;5155193;27;20219;-78
2022/10/16 08:46:17;;;;;;;2.85;1.63;;;;;;;;;;5162628;27;20868;-77
2022/10/16 08:48:46;;;;;;;2.97;1.55;;;;;;;;;;5147940;27;20283;-77
2022/10/16 08:51:20;;;;;;;3.53;1.25;;;;;;;;;;5155805;27;20284;-77
2022/10/16 08:53:50;;;;;;;2.17;1.20;;;;;;;;;;5164768;27;20621;-78
2022/10/16 08:56:19;;;;;;;2.95;1.10;;;;;;;;;;5155875;27;20275;-77
2022/10/16 08:58:47;;;;;;;3.47;1.23;;;;;;;;;;5155731;27;20220;-78
2022/10/16 09:01:16;;;;;;;2.40;0.98;;;;;;;;;;5155425;27;20283;-78
2022/10/16 09:03:52;;;;;;;2.45;1.08;;;;;;;;;;5163965;27;20239;-80
2022/10/16 09:06:26;;;;;;;4.90;1.30;;;;;;;;;;5155491;27;20278;-80
2022/10/16 09:09:00;;;;;;;2.42;1.33;;;;;;;;;;5155194;27;20232;-79
2022/10/16 09:11:33;;;;;;;2.28;1.10;;;;;;;;;;5151826;27;20224;-79
2022/10/16 09:14:05;;;;;;;3.25;1.10;;;;;;;;;;5151139;27;20279;-78
2022/10/16 09:16:36;;;;;;;4.68;1.30;;;;;;;;;;5155842;27;20228;-79
2022/10/16 09:19:07;;;;;;;3.22;1.30;;;;;;;;;;5155052;27;20246;-79
2022/10/16 09:21:37;;;;;;;1.52;1.00;;;;;;;;;;5155413;27;20279;-78
2022/10/16 09:24:11;;;;;;;4.18;1.30;;;;;;;;;;5154549;27;20283;-80
2022/10/16 09:26:38;;;;;;;2.78;1.30;;;;;;;;;;5154704;27;20193;-79
2022/10/16 09:29:05;;;;;;;2.38;1.20;;;;;;;;;;5153346;27;20631;-77
2022/10/16 09:31:33;;;;;;;1.58;1.08;;;;;;;;;;5153994;27;20291;-79
2022/10/16 09:34:04;;;;;;;1.88;1.30;;;;;;;;;;5153809;27;20235;-77
2022/10/16 09:36:34;;;;;;;3.85;1.52;;;;;;;;;;5154656;27;20603;-76
2022/10/16 09:39:07;;;;;;;5.75;1.40;;;;;;;;;;5154585;27;20204;-79
2022/10/16 09:41:36;;;;;;;4.18;1.40;;;;;;;;;;5154386;27;20232;-79
2022/10/16 09:44:03;;;;;;;3.40;0.80;;;;;;;;;;5154959;27;20238;-79
2022/10/16 09:46:32;;;;;;;3.65;1.20;;;;;;;;;;5153853;27;20224;-78
2022/10/16 09:49:00;;;;;;;4.13;1.10;;;;;;;;;;5154067;27;20292;-78
2022/10/16 09:51:29;;;;;;;1.98;0.65;;;;;;;;;;5154362;27;20193;-79
2022/10/16 09:53:57;;;;;;;3.47;0.82;;;;;;;;;;5154129;27;20246;-79
2022/10/16 09:56:27;;;;;;;4.63;0.77;;;;;;;;;;5151279;27;20224;-78
2022/10/16 09:58:54;;;;;;;2.55;0.70;;;;;;;;;;5154481;27;20271;-79
2022/10/16 10:01:22;;;;;;;3.20;0.77;;;;;;;;;;5153421;27;20216;-78
2022/10/16 10:03:50;;;;;;;3.90;1.00;;;;;;;;;;5162348;27;20233;-76
2022/10/16 10:06:25;;;;;;;2.67;0.80;;;;;;;;;;5160308;27;20223;-79
2022/10/16 10:08:56;;;;;;;1.48;0.80;;;;;;;;;;5153704;27;20224;-78
2022/10/16 10:11:41;;;;;;;3.08;0.60;;;;;;;;;;5149678;27;20710;-78
2022/10/16 10:14:15;;;;;;;2.25;0.70;;;;;;;;;;5138943;27;20571;-76
2022/10/16 10:16:42;;;;;;;4.72;0.77;;;;;;;;;;5153974;27;20679;-78
2022/10/16 10:19:14;;;;;;;2.78;0.80;;;;;;;;;;5151971;27;20201;-78
2022/10/16 10:21:42;;;;;;;3.60;0.90;;;;;;;;;;5153901;27;20611;-82
2022/10/16 10:24:11;;;;;;;3.53;0.80;;;;;;;;;;5137604;27;20192;-79
2022/10/16 10:26:39;;;;;;;3.65;0.80;;;;;;;;;;5153588;27;20197;-80
2022/10/16 10:29:10;;;;;;;2.03;0.70;;;;;;;;;;5158522;27;20698;-79
2022/10/16 10:31:41;;;;;;;3.00;0.75;;;;;;;;;;5153464;27;20271;-79
2022/10/16 10:34:18;;;;;;;2.90;0.80;;;;;;;;;;5153232;27;20814;-80
2022/10/16 10:36:46;;;;;;;2.05;0.63;;;;;;;;;;5154241;27;20288;-79
2022/10/16 10:39:17;;;;;;;2.38;1.00;;;;;;;;;;5153944;27;20607;-79
2022/10/16 10:41:54;;;;;;;3.03;0.88;;;;;;;;;;5152747;27;20806;-79
2022/10/16 10:44:27;;;;;;;2.00;0.88;;;;;;;;;;5155962;27;20192;-78
2022/10/16 10:46:57;;;;;;;3.60;1.13;;;;;;;;;;5155449;27;20676;-78
2022/10/16 10:49:36;;;;;;;2.53;1.23;;;;;;;;;;5158190;27;20227;-79
2022/10/16 10:52:10;;;;;;;2.10;1.05;;;;;;;;;;5151531;27;20204;-77
2022/10/16 10:54:41;;;;;;;1.67;0.73;;;;;;;;;;5139558;27;20228;-77
2022/10/16 10:57:11;;;;;;;1.35;0.90;;;;;;;;;;5150199;27;20279;-77
2022/10/16 10:59:50;;;;;;;3.10;1.35;;;;;;;;;;5148684;27;20686;-79
2022/10/16 11:02:23;;;;;;;3.65;1.20;;;;;;;;;;5150045;27;20192;-76
2022/10/16 11:05:03;;;;;;;2.45;1.10;;;;;;;;;;5158925;27;20274;-78
2022/10/16 11:07:32;;;;;;;4.32;1.38;;;;;;;;;;5149936;27;20287;-78
2022/10/16 11:10:03;;;;;;;3.35;1.30;;;;;;;;;;5152313;27;20359;-79
2022/10/16 11:12:32;;;;;;;2.78;1.40;;;;;;;;;;5153880;27;20232;-79
2022/10/16 11:15:03;;;;;;;2.65;1.42;;;;;;;;;;5153491;27;20734;-79
2022/10/16 11:17:31;;;;;;;3.20;1.48;;;;;;;;;;5154160;27;20284;-78
2022/10/16 11:20:02;;;;;;;3.78;1.80;;;;;;;;;;5153211;27;20295;-79
2022/10/16 11:22:32;;;;;;;7.40;1.77;;;;;;;;;;5153431;27;20666;-79
2022/10/16 11:25:03;;;;;;;2.53;1.50;;;;;;;;;;5153496;27;20231;-78
2022/10/16 11:27:35;;;;;;;2.75;1.70;;;;;;;;;;5151669;27;20279;-78
2022/10/16 11:30:06;;;;;;;3.50;1.70;;;;;;;;;;5153386;27;20250;-80
2022/10/16 11:32:35;;;;;;;2.65;1.40;;;;;;;;;;5152958;27;20200;-82
2022/10/16 11:35:06;;;;;;;4.07;1.52;;;;;;;;;;5153013;27;20246;-79
2022/10/16 11:37:37;;;;;;;5.25;1.50;;;;;;;;;;5153587;27;20235;-79
2022/10/16 11:40:12;;;;;;;3.70;1.80;;;;;;;;;;5137647;27;20291;-80
2022/10/16 11:42:43;;;;;;;2.60;1.60;;;;;;;;;;5154729;27;20231;-78
2022/10/16 11:45:17;;;;;;;3.58;2.10;;;;;;;;;;5151788;27;20228;-78
2022/10/16 11:47:46;;;;;;;4.57;2.33;;;;;;;;;;5157171;27;20283;-78
2022/10/16 11:50:20;;;;;;;3.80;1.90;;;;;;;;;;5166341;27;20227;-78
2022/10/16 11:52:53;;;;;;;2.22;1.77;;;;;;;;;;5179184;27;20227;-78
2022/10/16 11:55:22;;;;;;;3.65;1.92;;;;;;;;;;5157478;27;20228;-78
2022/10/16 11:57:52;;;;;;;2.28;1.50;;;;;;;;;;5156904;27;20279;-79
2022/10/16 12:00:23;;;;;;;4.38;2.03;;;;;;;;;;5155863;27;20247;-78
2022/10/16 12:02:55;;;;;;;2.58;1.60;;;;;;;;;;5156547;27;20204;-78
2022/10/16 12:05:26;;;;;;;4.10;1.73;;;;;;;;;;5157089;27;20231;-79
2022/10/16 12:07:59;;;;;;;7.00;1.70;;;;;;;;;;5156575;27;20232;-78
2022/10/16 12:10:28;;;;;;;3.35;1.50;;;;;;;;;;5156486;27;20280;-78
2022/10/16 12:12:57;;;;;;;1.35;1.02;;;;;;;;;;5157008;27;20234;-78
2022/10/16 12:15:27;;;;;;;2.65;1.25;;;;;;;;;;5156846;27;20235;-78
2022/10/16 12:17:55;;;;;;;1.92;1.13;;;;;;;;;;5156264;27;20288;-79
2022/10/16 12:20:25;;;;;;;2.42;1.00;;;;;;;;;;5156182;27;20299;-78
2022/10/16 12:22:55;;;;;;;0.93;0.75;;;;;;;;;;5156259;27;20827;-78
2022/10/16 12:25:23;;;;;;;2.85;0.93;;;;;;;;;;5157015;27;20200;-78
2022/10/16 12:27:55;;;;;;;1.42;0.80;;;;;;;;;;5156317;27;20224;-79
2022/10/16 12:30:24;;;;;;;3.60;0.90;;;;;;;;;;5144323;27;20213;-78
2022/10/16 12:32:57;;;;;;;3.83;0.98;;;;;;;;;;5156321;27;20299;-78
2022/10/16 12:35:25;;;;;;;2.13;0.90;;;;;;;;;;5156373;27;20291;-78
2022/10/16 12:37:53;;;;;;;3.33;0.93;;;;;;;;;;5156001;27;20283;-78
2022/10/16 12:40:27;;;;;;;1.30;0.70;;;;;;;;;;5155960;27;20244;-78
2022/10/16 12:42:54;;;;;;;2.33;0.85;;;;;;;;;;5155226;27;20234;-78
2022/10/16 12:45:30;;;;;;;1.38;0.80;;;;;;;;;;5155115;27;20214;-79
2022/10/16 12:48:00;;;;;;;1.45;0.90;;;;;;;;;;5155313;27;20234;-79
2022/10/16 12:50:28;;;;;;;1.00;0.75;;;;;;;;;;5150453;27;20192;-80
2022/10/16 12:52:56;;;;;;;1.50;0.88;;;;;;;;;;5155249;27;20679;-79
2022/10/16 12:55:24;;;;;;;2.03;0.80;;;;;;;;;;5156005;27;20317;-80
2022/10/16 12:58:05;;;;;;;0.60;0.60;;;;;;;;;;5154715;27;20581;-80
2022/10/16 13:00:36;;;;;;;2.97;1.30;;;;;;;;;;5157936;27;20393;-80
2022/10/16 13:03:22;;;;;;;1.50;1.00;;;;;;;;;;5160557;27;20254;-79
2022/10/16 13:05:58;;;;;;;1.13;0.90;;;;;;;;;;5143935;27;20239;-80
2022/10/16 13:08:46;;;;;;;1.40;0.80;;;;;;;;;;5146322;27;20285;-80
2022/10/16 13:11:21;;;;;;;1.05;0.70;;;;;;;;;;5147617;27;20224;-80
2022/10/16 13:14:09;;;;;;;2.28;0.90;;;;;;;;;;5152381;27;20207;-79
2022/10/16 13:16:41;;;;;;;1.50;0.82;;;;;;;;;;5140299;27;20279;-81
2022/10/16 13:19:14;;;;;;;1.80;1.00;;;;;;;;;;5154977;27;20220;-83
2022/10/16 13:21:48;;;;;;;2.05;1.20;;;;;;;;;;5151231;27;20220;-83
2022/10/16 13:24:25;;;;;;;2.65;0.95;;;;;;;;;;5153729;27;20253;-81
2022/10/16 13:26:57;;;;;;;2.22;0.98;;;;;;;;;;5154601;27;20280;-81
2022/10/16 13:29:24;;;;;;;1.23;0.93;;;;;;;;;;5154152;27;20255;-80
2022/10/16 13:31:51;;;;;;;2.15;1.13;;;;;;;;;;5156858;27;20224;-85
2022/10/16 13:34:20;;;;;;;4.10;1.20;;;;;;;;;;5154019;27;20275;-80
2022/10/16 13:36:51;;;;;;;2.10;1.10;;;;;;;;;;5158207;27;20241;-79
2022/10/16 13:39:22;;;;;;;1.65;1.30;;;;;;;;;;5158253;27;20686;-78
2022/10/16 13:41:59;;;;;;;1.45;0.85;;;;;;;;;;5154217;27;20244;-78
2022/10/16 13:44:26;;;;;;;1.23;1.10;;;;;;;;;;5154451;27;20235;-78
2022/10/16 13:47:00;;;;;;;1.23;1.00;;;;;;;;;;5154598;27;20346;-77
2022/10/16 13:49:28;;;;;;;1.20;0.90;;;;;;;;;;5135749;27;20191;-78
2022/10/16 13:51:57;;;;;;;2.00;1.00;;;;;;;;;;5153964;27;20216;-78
2022/10/16 13:54:25;;;;;;;1.60;1.00;;;;;;;;;;5150143;27;20225;-76
2022/10/16 13:56:52;;;;;;;1.23;0.95;;;;;;;;;;5152902;27;20242;-77
2022/10/16 13:59:26;;;;;;;1.42;1.15;;;;;;;;;;5154152;27;20283;-77
2022/10/16 14:01:54;;;;;;;1.00;0.90;;;;;;;;;;5152167;27;20319;-77
2022/10/16 14:04:22;;;;;;;2.25;1.20;;;;;;;;;;5153288;27;20188;-78
2022/10/16 14:06:51;;;;;;;1.45;1.20;;;;;;;;;;5153687;27;20287;-77
2022/10/16 14:09:23;;;;;;;1.90;1.02;;;;;;;;;;5152606;27;20228;-77
2022/10/16 14:11:52;;;;;;;1.42;1.02;;;;;;;;;;5157730;27;20284;-77
2022/10/16 14:14:19;;;;;;;1.38;0.90;;;;;;;;;;5152945;27;20201;-76
2022/10/16 14:16:47;;;;;;;2.30;1.13;;;;;;;;;;5153390;27;20283;-77
2022/10/16 14:19:16;;;;;;;1.50;1.15;;;;;;;;;;5135203;27;20935;-77
2022/10/16 14:21:44;;;;;;;3.10;1.00;;;;;;;;;;5152499;27;20307;-77
2022/10/16 14:24:14;;;;;;;1.55;1.00;;;;;;;;;;5148915;27;20192;-77
2022/10/16 14:26:44;;;;;;;1.20;1.00;;;;;;;;;;5152650;27;20239;-78
2022/10/16 14:29:15;;;;;;;1.35;1.25;;;;;;;;;;5153803;27;20722;-77
2022/10/16 14:31:46;;;;;;;2.15;0.98;;;;;;;;;;5150674;27;20232;-77
2022/10/16 14:34:27;;;;;;;1.70;1.30;;;;;;;;;;5152904;27;20253;-77
2022/10/16 14:36:54;;;;;;;1.30;1.20;;;;;;;;;;5151558;27;20668;-78
2022/10/16 14:39:23;;;;;;;2.38;1.45;;;;;;;;;;5153333;27;20618;-78
2022/10/16 14:41:53;;;;;;;2.38;1.20;;;;;;;;;;5151479;27;20730;-78
2022/10/16 14:44:21;;;;;;;1.90;1.27;;;;;;;;;;5150977;27;20229;-78
2022/10/16 14:46:49;;;;;;;1.30;1.20;;;;;;;;;;5148505;27;20204;-78